Аэропорт: Псков. Псков

ICAO: ULOO

METAR:
2018/07/16 20:00
ULOO 162000Z AUTO 01003MPS 8000 // NCD 21/14 Q1012 RMK QFE755
METAR:
2016/02/06 08:39
TAF 
      AMD TAF 
      AMD ULOO 061936Z 0608/0703 CNL